sensor_id;sensor_type;location;lat;lon;timestamp;P1;durP1;ratioP1;P2;durP2;ratioP2
58972;SDS011;44750;52.040;7.472;2022-11-14T00:04:38;10.43;;;7.97;;
58972;SDS011;44750;52.040;7.472;2022-11-14T00:09:39;11.05;;;7.75;;
58972;SDS011;44750;52.040;7.472;2022-11-14T00:14:39;6.78;;;6.13;;
58972;SDS011;44750;52.040;7.472;2022-11-14T00:19:39;9.45;;;7.18;;
58972;SDS011;44750;52.040;7.472;2022-11-14T00:24:39;16.27;;;9.13;;
58972;SDS011;44750;52.040;7.472;2022-11-14T00:29:40;10.18;;;7.80;;
58972;SDS011;44750;52.040;7.472;2022-11-14T00:34:40;13.93;;;9.68;;
58972;SDS011;44750;52.040;7.472;2022-11-14T00:39:40;10.75;;;7.95;;
58972;SDS011;44750;52.040;7.472;2022-11-14T00:44:40;7.38;;;6.50;;
58972;SDS011;44750;52.040;7.472;2022-11-14T00:49:40;12.45;;;8.15;;
58972;SDS011;44750;52.040;7.472;2022-11-14T00:54:41;9.15;;;7.90;;
58972;SDS011;44750;52.040;7.472;2022-11-14T00:59:41;16.70;;;9.05;;
58972;SDS011;44750;52.040;7.472;2022-11-14T01:04:41;13.35;;;8.93;;
58972;SDS011;44750;52.040;7.472;2022-11-14T01:09:41;13.95;;;7.18;;
58972;SDS011;44750;52.040;7.472;2022-11-14T01:14:42;10.82;;;8.27;;
58972;SDS011;44750;52.040;7.472;2022-11-14T01:19:42;9.35;;;7.45;;
58972;SDS011;44750;52.040;7.472;2022-11-14T01:24:42;12.15;;;8.82;;
58972;SDS011;44750;52.040;7.472;2022-11-14T01:29:42;13.77;;;7.90;;
58972;SDS011;44750;52.040;7.472;2022-11-14T01:34:42;8.63;;;7.32;;
58972;SDS011;44750;52.040;7.472;2022-11-14T01:39:43;8.57;;;7.55;;
58972;SDS011;44750;52.040;7.472;2022-11-14T01:44:45;8.75;;;6.38;;
58972;SDS011;44750;52.040;7.472;2022-11-14T01:49:48;12.47;;;8.47;;
58972;SDS011;44750;52.040;7.472;2022-11-14T01:54:53;10.52;;;6.47;;
58972;SDS011;44750;52.040;7.472;2022-11-14T01:59:57;7.32;;;6.07;;
58972;SDS011;44750;52.040;7.472;2022-11-14T02:05:05;8.33;;;7.07;;
58972;SDS011;44750;52.040;7.472;2022-11-14T02:10:09;13.43;;;7.80;;
58972;SDS011;44750;52.040;7.472;2022-11-14T02:15:20;6.50;;;5.90;;
58972;SDS011;44750;52.040;7.472;2022-11-14T02:20:21;9.00;;;7.05;;
58972;SDS011;44750;52.040;7.472;2022-11-14T02:25:23;10.52;;;6.60;;
58972;SDS011;44750;52.040;7.472;2022-11-14T02:30:24;8.48;;;6.78;;
58972;SDS011;44750;52.040;7.472;2022-11-14T02:35:24;13.75;;;7.25;;
58972;SDS011;44750;52.040;7.472;2022-11-14T02:40:24;7.77;;;6.53;;
58972;SDS011;44750;52.040;7.472;2022-11-14T02:45:25;14.52;;;8.07;;
58972;SDS011;44750;52.040;7.472;2022-11-14T02:50:25;8.98;;;7.10;;
58972;SDS011;44750;52.040;7.472;2022-11-14T02:55:26;8.23;;;6.57;;
58972;SDS011;44750;52.040;7.472;2022-11-14T03:00:27;6.80;;;6.10;;
58972;SDS011;44750;52.040;7.472;2022-11-14T03:05:28;25.52;;;8.27;;
58972;SDS011;44750;52.040;7.472;2022-11-14T03:10:28;9.27;;;7.50;;
58972;SDS011;44750;52.040;7.472;2022-11-14T03:15:28;11.00;;;7.03;;
58972;SDS011;44750;52.040;7.472;2022-11-14T03:20:28;7.78;;;6.38;;
58972;SDS011;44750;52.040;7.472;2022-11-14T03:25:29;14.95;;;8.52;;
58972;SDS011;44750;52.040;7.472;2022-11-14T03:30:29;11.77;;;8.13;;
58972;SDS011;44750;52.040;7.472;2022-11-14T03:35:29;12.45;;;7.30;;
58972;SDS011;44750;52.040;7.472;2022-11-14T03:40:30;6.97;;;6.07;;
58972;SDS011;44750;52.040;7.472;2022-11-14T03:45:30;12.07;;;6.97;;
58972;SDS011;44750;52.040;7.472;2022-11-14T03:50:30;9.60;;;7.55;;
58972;SDS011;44750;52.040;7.472;2022-11-14T03:55:30;11.40;;;7.15;;
58972;SDS011;44750;52.040;7.472;2022-11-14T04:00:31;8.90;;;6.40;;
58972;SDS011;44750;52.040;7.472;2022-11-14T04:05:31;12.63;;;8.48;;
58972;SDS011;44750;52.040;7.472;2022-11-14T04:10:32;7.57;;;6.70;;
58972;SDS011;44750;52.040;7.472;2022-11-14T04:15:32;13.90;;;6.87;;
58972;SDS011;44750;52.040;7.472;2022-11-14T04:20:33;9.77;;;6.90;;
58972;SDS011;44750;52.040;7.472;2022-11-14T04:25:33;8.33;;;6.60;;
58972;SDS011;44750;52.040;7.472;2022-11-14T04:30:33;8.77;;;6.53;;
58972;SDS011;44750;52.040;7.472;2022-11-14T04:35:33;17.83;;;7.68;;
58972;SDS011;44750;52.040;7.472;2022-11-14T04:40:34;8.23;;;7.30;;
58972;SDS011;44750;52.040;7.472;2022-11-14T04:45:34;10.02;;;6.80;;
58972;SDS011;44750;52.040;7.472;2022-11-14T04:50:34;12.77;;;7.85;;
58972;SDS011;44750;52.040;7.472;2022-11-14T04:55:42;8.03;;;6.60;;
58972;SDS011;44750;52.040;7.472;2022-11-14T05:00:43;6.57;;;5.80;;
58972;SDS011;44750;52.040;7.472;2022-11-14T05:05:43;8.70;;;6.50;;
58972;SDS011;44750;52.040;7.472;2022-11-14T05:10:44;13.25;;;6.75;;
58972;SDS011;44750;52.040;7.472;2022-11-14T05:15:45;9.20;;;7.18;;
58972;SDS011;44750;52.040;7.472;2022-11-14T05:20:45;10.80;;;6.33;;
58972;SDS011;44750;52.040;7.472;2022-11-14T05:25:46;6.07;;;4.68;;
58972;SDS011;44750;52.040;7.472;2022-11-14T05:30:46;7.70;;;6.18;;
58972;SDS011;44750;52.040;7.472;2022-11-14T05:35:46;11.43;;;6.50;;
58972;SDS011;44750;52.040;7.472;2022-11-14T05:40:47;9.23;;;7.35;;
58972;SDS011;44750;52.040;7.472;2022-11-14T05:45:47;6.93;;;6.27;;
58972;SDS011;44750;52.040;7.472;2022-11-14T05:50:53;7.40;;;5.97;;
58972;SDS011;44750;52.040;7.472;2022-11-14T05:55:54;12.13;;;6.87;;
58972;SDS011;44750;52.040;7.472;2022-11-14T06:01:01;6.85;;;6.15;;
58972;SDS011;44750;52.040;7.472;2022-11-14T06:06:08;8.85;;;6.55;;
58972;SDS011;44750;52.040;7.472;2022-11-14T06:11:11;11.40;;;6.93;;
58972;SDS011;44750;52.040;7.472;2022-11-14T06:16:15;9.15;;;6.32;;
58972;SDS011;44750;52.040;7.472;2022-11-14T06:21:17;17.52;;;7.63;;
58972;SDS011;44750;52.040;7.472;2022-11-14T06:26:20;8.65;;;6.55;;
58972;SDS011;44750;52.040;7.472;2022-11-14T06:31:24;8.93;;;4.97;;
58972;SDS011;44750;52.040;7.472;2022-11-14T06:36:25;7.40;;;6.30;;
58972;SDS011;44750;52.040;7.472;2022-11-14T06:41:25;6.55;;;5.28;;
58972;SDS011;44750;52.040;7.472;2022-11-14T06:46:25;9.57;;;5.93;;
58972;SDS011;44750;52.040;7.472;2022-11-14T06:51:25;10.32;;;6.88;;
58972;SDS011;44750;52.040;7.472;2022-11-14T06:56:25;6.82;;;5.47;;
58972;SDS011;44750;52.040;7.472;2022-11-14T07:01:26;9.15;;;5.82;;
58972;SDS011;44750;52.040;7.472;2022-11-14T07:06:27;7.97;;;6.05;;
58972;SDS011;44750;52.040;7.472;2022-11-14T07:11:28;5.75;;;5.10;;
58972;SDS011;44750;52.040;7.472;2022-11-14T07:16:32;8.70;;;6.28;;
58972;SDS011;44750;52.040;7.472;2022-11-14T07:21:34;6.40;;;5.60;;
58972;SDS011;44750;52.040;7.472;2022-11-14T07:26:35;10.18;;;6.10;;
58972;SDS011;44750;52.040;7.472;2022-11-14T07:31:36;8.20;;;5.60;;
58972;SDS011;44750;52.040;7.472;2022-11-14T07:36:36;8.80;;;6.47;;
58972;SDS011;44750;52.040;7.472;2022-11-14T07:41:36;13.80;;;5.85;;
58972;SDS011;44750;52.040;7.472;2022-11-14T07:46:36;6.50;;;4.68;;
58972;SDS011;44750;52.040;7.472;2022-11-14T07:51:37;6.85;;;5.15;;
58972;SDS011;44750;52.040;7.472;2022-11-14T07:56:37;6.13;;;5.35;;
58972;SDS011;44750;52.040;7.472;2022-11-14T08:01:37;7.33;;;5.63;;
58972;SDS011;44750;52.040;7.472;2022-11-14T08:06:37;8.38;;;5.38;;
58972;SDS011;44750;52.040;7.472;2022-11-14T08:11:38;5.78;;;5.07;;
58972;SDS011;44750;52.040;7.472;2022-11-14T08:16:38;9.20;;;5.13;;
58972;SDS011;44750;52.040;7.472;2022-11-14T08:21:38;5.95;;;4.45;;
58972;SDS011;44750;52.040;7.472;2022-11-14T08:26:38;9.48;;;4.72;;
58972;SDS011;44750;52.040;7.472;2022-11-14T08:31:38;5.15;;;4.28;;
58972;SDS011;44750;52.040;7.472;2022-11-14T08:36:39;5.53;;;4.28;;
58972;SDS011;44750;52.040;7.472;2022-11-14T08:41:40;6.63;;;4.88;;
58972;SDS011;44750;52.040;7.472;2022-11-14T08:46:41;16.13;;;5.50;;
58972;SDS011;44750;52.040;7.472;2022-11-14T08:51:42;6.18;;;4.57;;
58972;SDS011;44750;52.040;7.472;2022-11-14T08:56:42;5.82;;;4.18;;
58972;SDS011;44750;52.040;7.472;2022-11-14T09:01:42;15.20;;;4.38;;
58972;SDS011;44750;52.040;7.472;2022-11-14T09:06:42;4.38;;;3.72;;
58972;SDS011;44750;52.040;7.472;2022-11-14T09:11:43;7.43;;;3.87;;
58972;SDS011;44750;52.040;7.472;2022-11-14T09:16:43;9.63;;;5.53;;
58972;SDS011;44750;52.040;7.472;2022-11-14T09:21:46;4.75;;;3.83;;
58972;SDS011;44750;52.040;7.472;2022-11-14T09:26:46;8.00;;;5.22;;
58972;SDS011;44750;52.040;7.472;2022-11-14T09:31:46;5.07;;;4.07;;
58972;SDS011;44750;52.040;7.472;2022-11-14T09:36:47;7.00;;;4.40;;
58972;SDS011;44750;52.040;7.472;2022-11-14T09:42:30;5.63;;;3.50;;
58972;SDS011;44750;52.040;7.472;2022-11-14T09:47:30;7.95;;;4.00;;
58972;SDS011;44750;52.040;7.472;2022-11-14T09:57:46;5.15;;;4.20;;
58972;SDS011;44750;52.040;7.472;2022-11-14T10:35:03;6.95;;;4.35;;
58972;SDS011;44750;52.040;7.472;2022-11-14T10:40:17;6.82;;;3.58;;
58972;SDS011;44750;52.040;7.472;2022-11-14T10:50:27;5.97;;;4.47;;
58972;SDS011;44750;52.040;7.472;2022-11-14T10:55:36;5.05;;;3.20;;
58972;SDS011;44750;52.040;7.472;2022-11-14T11:00:36;5.82;;;3.72;;
58972;SDS011;44750;52.040;7.472;2022-11-14T11:05:49;4.32;;;3.20;;
58972;SDS011;44750;52.040;7.472;2022-11-14T11:10:51;5.65;;;3.88;;
58972;SDS011;44750;52.040;7.472;2022-11-14T11:15:58;5.05;;;3.20;;
58972;SDS011;44750;52.040;7.472;2022-11-14T11:26:09;4.80;;;3.40;;
58972;SDS011;44750;52.040;7.472;2022-11-14T11:31:24;5.18;;;4.05;;
58972;SDS011;44750;52.040;7.472;2022-11-14T11:36:25;7.05;;;3.47;;
58972;SDS011;44750;52.040;7.472;2022-11-14T11:41:29;7.18;;;3.97;;
58972;SDS011;44750;52.040;7.472;2022-11-14T11:51:58;4.70;;;3.00;;
58972;SDS011;44750;52.040;7.472;2022-11-14T11:57:08;5.63;;;2.85;;
58972;SDS011;44750;52.040;7.472;2022-11-14T12:02:32;6.43;;;3.38;;
58972;SDS011;44750;52.040;7.472;2022-11-14T12:07:37;6.50;;;3.38;;
58972;SDS011;44750;52.040;7.472;2022-11-14T12:18:14;3.55;;;2.80;;
58972;SDS011;44750;52.040;7.472;2022-11-14T12:34:03;5.80;;;2.67;;
58972;SDS011;44750;52.040;7.472;2022-11-14T12:39:20;6.88;;;3.88;;
58972;SDS011;44750;52.040;7.472;2022-11-14T12:54:46;5.13;;;3.10;;
58972;SDS011;44750;52.040;7.472;2022-11-14T12:59:51;6.95;;;2.55;;
58972;SDS011;44750;52.040;7.472;2022-11-14T13:05:11;4.50;;;2.47;;
58972;SDS011;44750;52.040;7.472;2022-11-14T13:10:23;6.15;;;2.67;;
58972;SDS011;44750;52.040;7.472;2022-11-14T13:15:29;3.97;;;3.03;;
58972;SDS011;44750;52.040;7.472;2022-11-14T13:20:32;4.50;;;2.80;;
58972;SDS011;44750;52.040;7.472;2022-11-14T13:25:34;2.78;;;2.20;;
58972;SDS011;44750;52.040;7.472;2022-11-14T13:36:05;7.05;;;2.35;;
58972;SDS011;44750;52.040;7.472;2022-11-14T13:52:10;3.72;;;2.15;;
58972;SDS011;44750;52.040;7.472;2022-11-14T13:57:31;3.08;;;2.50;;
58972;SDS011;44750;52.040;7.472;2022-11-14T14:29:32;3.22;;;2.08;;
58972;SDS011;44750;52.040;7.472;2022-11-14T14:34:49;3.15;;;2.40;;
58972;SDS011;44750;52.040;7.472;2022-11-14T14:40:03;6.45;;;2.60;;
58972;SDS011;44750;52.040;7.472;2022-11-14T14:45:24;3.90;;;2.50;;
58972;SDS011;44750;52.040;7.472;2022-11-14T14:50:27;5.85;;;3.53;;
58972;SDS011;44750;52.040;7.472;2022-11-14T14:55:34;5.03;;;3.38;;
58972;SDS011;44750;52.040;7.472;2022-11-14T15:00:34;4.25;;;2.83;;
58972;SDS011;44750;52.040;7.472;2022-11-14T15:05:35;5.63;;;2.63;;
58972;SDS011;44750;52.040;7.472;2022-11-14T15:10:35;3.25;;;2.50;;
58972;SDS011;44750;52.040;7.472;2022-11-14T15:15:36;3.72;;;2.42;;
58972;SDS011;44750;52.040;7.472;2022-11-14T15:20:38;4.47;;;3.08;;
58972;SDS011;44750;52.040;7.472;2022-11-14T15:25:38;5.68;;;3.38;;
58972;SDS011;44750;52.040;7.472;2022-11-14T15:30:38;3.40;;;2.70;;
58972;SDS011;44750;52.040;7.472;2022-11-14T15:35:39;3.07;;;2.77;;
58972;SDS011;44750;52.040;7.472;2022-11-14T15:40:39;3.30;;;2.72;;
58972;SDS011;44750;52.040;7.472;2022-11-14T15:45:40;4.00;;;3.08;;
58972;SDS011;44750;52.040;7.472;2022-11-14T15:50:40;6.85;;;3.65;;
58972;SDS011;44750;52.040;7.472;2022-11-14T15:55:41;4.47;;;3.22;;
58972;SDS011;44750;52.040;7.472;2022-11-14T16:00:45;4.82;;;3.08;;
58972;SDS011;44750;52.040;7.472;2022-11-14T16:05:54;11.02;;;3.03;;
58972;SDS011;44750;52.040;7.472;2022-11-14T16:10:55;4.38;;;3.50;;
58972;SDS011;44750;52.040;7.472;2022-11-14T16:15:58;2.95;;;2.65;;
58972;SDS011;44750;52.040;7.472;2022-11-14T16:20:58;3.83;;;2.70;;
58972;SDS011;44750;52.040;7.472;2022-11-14T16:25:58;5.22;;;2.53;;
58972;SDS011;44750;52.040;7.472;2022-11-14T16:30:58;4.40;;;2.95;;
58972;SDS011;44750;52.040;7.472;2022-11-14T16:35:59;3.22;;;2.88;;
58972;SDS011;44750;52.040;7.472;2022-11-14T16:40:59;3.85;;;3.38;;
58972;SDS011;44750;52.040;7.472;2022-11-14T16:46:03;3.25;;;2.50;;
58972;SDS011;44750;52.040;7.472;2022-11-14T16:51:04;3.20;;;2.15;;
58972;SDS011;44750;52.040;7.472;2022-11-14T16:56:04;3.03;;;2.58;;
58972;SDS011;44750;52.040;7.472;2022-11-14T17:01:05;2.67;;;2.30;;
58972;SDS011;44750;52.040;7.472;2022-11-14T17:06:06;4.15;;;3.22;;
58972;SDS011;44750;52.040;7.472;2022-11-14T17:11:08;4.88;;;3.03;;
58972;SDS011;44750;52.040;7.472;2022-11-14T17:16:09;5.97;;;2.72;;
58972;SDS011;44750;52.040;7.472;2022-11-14T17:21:10;3.20;;;2.63;;
58972;SDS011;44750;52.040;7.472;2022-11-14T17:26:11;2.72;;;2.35;;
58972;SDS011;44750;52.040;7.472;2022-11-14T17:31:15;4.30;;;2.85;;
58972;SDS011;44750;52.040;7.472;2022-11-14T17:36:15;2.80;;;2.10;;
58972;SDS011;44750;52.040;7.472;2022-11-14T17:41:16;3.67;;;2.40;;
58972;SDS011;44750;52.040;7.472;2022-11-14T17:46:16;4.20;;;2.72;;
58972;SDS011;44750;52.040;7.472;2022-11-14T17:51:17;3.28;;;2.28;;
58972;SDS011;44750;52.040;7.472;2022-11-14T17:56:18;6.35;;;2.10;;
58972;SDS011;44750;52.040;7.472;2022-11-14T18:01:22;3.65;;;2.53;;
58972;SDS011;44750;52.040;7.472;2022-11-14T18:06:23;4.68;;;2.80;;
58972;SDS011;44750;52.040;7.472;2022-11-14T18:11:23;7.55;;;3.00;;
58972;SDS011;44750;52.040;7.472;2022-11-14T18:16:23;6.60;;;3.28;;
58972;SDS011;44750;52.040;7.472;2022-11-14T18:21:24;3.30;;;2.40;;
58972;SDS011;44750;52.040;7.472;2022-11-14T18:26:25;5.45;;;2.65;;
58972;SDS011;44750;52.040;7.472;2022-11-14T18:31:27;4.10;;;2.60;;
58972;SDS011;44750;52.040;7.472;2022-11-14T18:36:27;5.90;;;2.33;;
58972;SDS011;44750;52.040;7.472;2022-11-14T18:41:27;4.13;;;2.08;;
58972;SDS011;44750;52.040;7.472;2022-11-14T18:46:28;4.60;;;2.78;;
58972;SDS011;44750;52.040;7.472;2022-11-14T18:51:28;2.15;;;2.00;;
58972;SDS011;44750;52.040;7.472;2022-11-14T18:56:28;6.40;;;2.37;;
58972;SDS011;44750;52.040;7.472;2022-11-14T19:01:28;2.30;;;2.10;;
58972;SDS011;44750;52.040;7.472;2022-11-14T19:06:29;5.57;;;2.88;;
58972;SDS011;44750;52.040;7.472;2022-11-14T19:11:30;2.63;;;1.77;;
58972;SDS011;44750;52.040;7.472;2022-11-14T19:16:31;6.15;;;3.25;;
58972;SDS011;44750;52.040;7.472;2022-11-14T19:21:33;4.22;;;3.17;;
58972;SDS011;44750;52.040;7.472;2022-11-14T19:26:33;3.35;;;2.53;;
58972;SDS011;44750;52.040;7.472;2022-11-14T19:31:34;2.95;;;2.63;;
58972;SDS011;44750;52.040;7.472;2022-11-14T19:36:35;4.80;;;2.83;;
58972;SDS011;44750;52.040;7.472;2022-11-14T19:41:36;3.47;;;2.60;;
58972;SDS011;44750;52.040;7.472;2022-11-14T19:46:36;2.90;;;2.58;;
58972;SDS011;44750;52.040;7.472;2022-11-14T19:51:36;5.00;;;2.93;;
58972;SDS011;44750;52.040;7.472;2022-11-14T19:56:36;4.70;;;3.03;;
58972;SDS011;44750;52.040;7.472;2022-11-14T20:01:37;5.80;;;3.60;;
58972;SDS011;44750;52.040;7.472;2022-11-14T20:06:37;9.85;;;3.40;;
58972;SDS011;44750;52.040;7.472;2022-11-14T20:11:38;7.85;;;2.88;;
58972;SDS011;44750;52.040;7.472;2022-11-14T20:16:38;3.85;;;2.92;;
58972;SDS011;44750;52.040;7.472;2022-11-14T20:21:39;10.25;;;3.92;;
58972;SDS011;44750;52.040;7.472;2022-11-14T20:26:39;3.95;;;3.33;;
58972;SDS011;44750;52.040;7.472;2022-11-14T20:31:39;4.00;;;2.63;;
58972;SDS011;44750;52.040;7.472;2022-11-14T20:36:39;6.13;;;3.13;;
58972;SDS011;44750;52.040;7.472;2022-11-14T20:41:41;4.75;;;2.90;;
58972;SDS011;44750;52.040;7.472;2022-11-14T20:46:41;4.50;;;3.05;;
58972;SDS011;44750;52.040;7.472;2022-11-14T20:51:41;6.05;;;3.53;;
58972;SDS011;44750;52.040;7.472;2022-11-14T20:56:42;3.75;;;3.28;;
58972;SDS011;44750;52.040;7.472;2022-11-14T21:01:42;6.43;;;4.40;;
58972;SDS011;44750;52.040;7.472;2022-11-14T21:06:42;4.13;;;3.55;;
58972;SDS011;44750;52.040;7.472;2022-11-14T21:11:42;7.15;;;4.22;;
58972;SDS011;44750;52.040;7.472;2022-11-14T21:16:42;3.90;;;3.13;;
58972;SDS011;44750;52.040;7.472;2022-11-14T21:21:43;7.97;;;3.65;;
58972;SDS011;44750;52.040;7.472;2022-11-14T21:26:43;6.53;;;3.53;;
58972;SDS011;44750;52.040;7.472;2022-11-14T21:31:44;5.88;;;3.58;;
58972;SDS011;44750;52.040;7.472;2022-11-14T21:36:44;4.13;;;2.90;;
58972;SDS011;44750;52.040;7.472;2022-11-14T21:41:46;3.55;;;2.97;;
58972;SDS011;44750;52.040;7.472;2022-11-14T21:46:46;3.83;;;3.22;;
58972;SDS011;44750;52.040;7.472;2022-11-14T21:51:46;5.72;;;3.88;;
58972;SDS011;44750;52.040;7.472;2022-11-14T21:56:46;21.52;;;4.53;;
58972;SDS011;44750;52.040;7.472;2022-11-14T22:01:47;4.57;;;3.03;;
58972;SDS011;44750;52.040;7.472;2022-11-14T22:06:49;7.93;;;4.38;;
58972;SDS011;44750;52.040;7.472;2022-11-14T22:11:49;4.22;;;3.03;;
58972;SDS011;44750;52.040;7.472;2022-11-14T22:16:49;4.90;;;3.72;;
58972;SDS011;44750;52.040;7.472;2022-11-14T22:21:50;6.28;;;3.60;;
58972;SDS011;44750;52.040;7.472;2022-11-14T22:26:50;5.47;;;3.13;;
58972;SDS011;44750;52.040;7.472;2022-11-14T22:31:50;5.40;;;3.70;;
58972;SDS011;44750;52.040;7.472;2022-11-14T22:36:50;4.25;;;3.28;;
58972;SDS011;44750;52.040;7.472;2022-11-14T22:41:51;6.67;;;4.13;;
58972;SDS011;44750;52.040;7.472;2022-11-14T22:46:51;5.38;;;3.80;;
58972;SDS011;44750;52.040;7.472;2022-11-14T22:51:51;5.13;;;3.25;;
58972;SDS011;44750;52.040;7.472;2022-11-14T22:56:52;6.97;;;4.18;;
58972;SDS011;44750;52.040;7.472;2022-11-14T23:01:53;8.00;;;3.67;;
58972;SDS011;44750;52.040;7.472;2022-11-14T23:06:54;3.65;;;2.90;;
58972;SDS011;44750;52.040;7.472;2022-11-14T23:11:54;3.22;;;2.85;;
58972;SDS011;44750;52.040;7.472;2022-11-14T23:16:54;4.07;;;2.92;;
58972;SDS011;44750;52.040;7.472;2022-11-14T23:21:54;4.78;;;3.47;;
58972;SDS011;44750;52.040;7.472;2022-11-14T23:26:55;5.28;;;3.47;;
58972;SDS011;44750;52.040;7.472;2022-11-14T23:31:55;4.28;;;3.13;;
58972;SDS011;44750;52.040;7.472;2022-11-14T23:36:55;4.28;;;3.05;;
58972;SDS011;44750;52.040;7.472;2022-11-14T23:41:55;6.13;;;4.07;;
58972;SDS011;44750;52.040;7.472;2022-11-14T23:46:55;3.55;;;2.72;;
58972;SDS011;44750;52.040;7.472;2022-11-14T23:51:56;5.25;;;3.60;;
58972;SDS011;44750;52.040;7.472;2022-11-14T23:56:56;5.35;;;2.92;;
